createdAt,value
2018-05-03T00:00:27.946Z,91.30
2018-05-03T00:02:55.424Z,91.30
2018-05-03T00:05:22.901Z,91.30
2018-05-03T00:07:50.359Z,91.20
2018-05-03T00:10:17.939Z,91.10
2018-05-03T00:12:46.163Z,91.30
2018-05-03T00:15:13.648Z,91.10
2018-05-03T00:17:41.111Z,91.10
2018-05-03T00:20:08.597Z,91.00
2018-05-03T00:22:36.837Z,91.00
2018-05-03T00:25:04.342Z,91.00
2018-05-03T00:27:31.799Z,91.00
2018-05-03T00:29:59.283Z,91.00
2018-05-03T00:32:26.763Z,91.10
2018-05-03T00:34:54.250Z,91.10
2018-05-03T00:37:22.559Z,91.30
2018-05-03T00:39:50.048Z,91.30
2018-05-03T00:42:17.519Z,91.20
2018-05-03T00:44:45.784Z,91.30
2018-05-03T00:47:13.251Z,91.30
2018-05-03T00:49:40.843Z,91.20
2018-05-03T00:52:09.075Z,91.10
2018-05-03T00:54:47.525Z,91.10
2018-05-03T00:57:15.773Z,91.20
2018-05-03T00:59:43.383Z,91.20
2018-05-03T01:02:10.847Z,91.20
2018-05-03T01:04:38.327Z,91.10
2018-05-03T01:07:05.794Z,91.20
2018-05-03T01:09:33.267Z,91.20
2018-05-03T01:12:00.769Z,91.10
2018-05-03T01:14:28.238Z,91.20
2018-05-03T01:16:55.705Z,91.30
2018-05-03T01:19:23.199Z,91.30
2018-05-03T01:21:50.691Z,91.40
2018-05-03T01:24:18.239Z,91.40
2018-05-03T01:26:46.516Z,91.40
2018-05-03T01:29:14.784Z,91.40
2018-05-03T01:31:43.094Z,91.50
2018-05-03T01:34:10.566Z,91.50
2018-05-03T01:36:38.111Z,91.60
2018-05-03T01:39:05.674Z,91.60
2018-05-03T01:41:33.139Z,91.70
2018-05-03T01:44:00.627Z,91.60
2018-05-03T01:46:28.084Z,91.70
2018-05-03T01:48:55.583Z,91.80
2018-05-03T01:51:23.840Z,91.80
2018-05-03T01:53:52.935Z,91.80
2018-05-03T01:56:21.213Z,91.90
2018-05-03T01:58:49.470Z,92.10
2018-05-03T02:01:16.952Z,91.90
2018-05-03T02:03:45.224Z,91.90
2018-05-03T02:06:13.532Z,92.00
2018-05-03T02:08:41.091Z,91.90
2018-05-03T02:11:08.651Z,91.90
2018-05-03T02:13:36.209Z,91.90
2018-05-03T02:16:03.697Z,92.00
2018-05-03T02:18:31.165Z,92.00
2018-05-03T02:20:58.684Z,92.10
2018-05-03T02:23:26.216Z,92.00
2018-05-03T02:25:54.495Z,92.50
2018-05-03T02:28:22.778Z,92.20
2018-05-03T02:30:51.031Z,92.20
2018-05-03T02:33:18.496Z,92.30
2018-05-03T02:35:46.756Z,92.30
2018-05-03T02:38:14.227Z,92.30
2018-05-03T02:40:42.507Z,92.40
2018-05-03T02:43:10.724Z,92.50
2018-05-03T02:45:38.216Z,92.50
2018-05-03T02:48:05.672Z,92.60
2018-05-03T02:50:33.144Z,92.60
2018-05-03T02:53:00.616Z,92.80
2018-05-03T02:55:28.865Z,92.70
2018-05-03T02:58:14.005Z,92.70
2018-05-03T03:00:59.198Z,93.00
2018-05-03T03:03:44.433Z,93.10
2018-05-03T03:06:29.736Z,93.00
2018-05-03T03:12:47.153Z,92.80
2018-05-03T03:15:32.364Z,92.90
2018-05-03T03:18:11.894Z,93.10
2018-05-03T03:20:57.269Z,93.20
2018-05-03T03:23:42.621Z,93.30
2018-05-03T03:29:48.971Z,93.20
2018-05-03T03:32:28.440Z,93.30
2018-05-03T03:38:12.459Z,93.20
2018-05-03T03:40:51.903Z,93.40
2018-05-03T03:46:20.183Z,93.00
2018-05-03T03:48:47.762Z,93.30
2018-05-03T03:51:15.984Z,93.10
2018-05-03T03:53:43.464Z,93.10
2018-05-03T03:56:10.927Z,93.30
2018-05-03T03:58:38.404Z,93.20
2018-05-03T04:01:05.870Z,93.30
2018-05-03T04:03:33.360Z,93.30
2018-05-03T04:06:00.821Z,93.30
2018-05-03T04:08:28.362Z,93.30
2018-05-03T04:10:55.830Z,93.20
2018-05-03T04:13:23.328Z,93.20
2018-05-03T04:15:50.793Z,93.10
2018-05-03T04:18:30.367Z,93.00
2018-05-03T04:21:10.554Z,92.90
2018-05-03T04:24:05.032Z,92.90
2018-05-03T04:26:32.508Z,93.10
2018-05-03T04:28:59.992Z,93.10
2018-05-03T04:31:27.473Z,93.00
2018-05-03T04:33:54.974Z,93.00
2018-05-03T04:36:22.450Z,92.80
2018-05-03T04:38:49.949Z,93.00
2018-05-03T04:41:17.433Z,92.90
2018-05-03T04:43:44.902Z,92.90
2018-05-03T04:46:12.396Z,92.80
2018-05-03T04:48:39.861Z,92.80
2018-05-03T04:51:07.344Z,92.70
2018-05-03T04:53:35.582Z,92.20
2018-05-03T04:56:03.070Z,92.20
2018-05-03T04:58:30.731Z,91.40
2018-05-03T05:00:58.295Z,91.50
2018-05-03T05:03:26.520Z,91.10
2018-05-03T05:05:54.023Z,91.00
2018-05-03T05:08:21.577Z,90.90
2018-05-03T05:10:49.071Z,90.80
2018-05-03T05:13:16.547Z,90.70
2018-05-03T05:15:44.030Z,90.70
2018-05-03T05:18:11.503Z,90.70
2018-05-03T05:20:39.108Z,90.70
2018-05-03T05:23:06.613Z,90.50
2018-05-03T05:25:34.114Z,90.70
2018-05-03T05:28:01.580Z,90.80
2018-05-03T05:30:29.068Z,90.90
2018-05-03T05:32:56.627Z,91.00
2018-05-03T05:35:24.110Z,91.10
2018-05-03T05:37:52.354Z,91.20
2018-05-03T05:40:19.868Z,91.20
2018-05-03T05:42:48.105Z,91.40
2018-05-03T05:45:15.588Z,91.70
2018-05-03T05:47:43.817Z,91.50
2018-05-03T05:50:11.768Z,91.50
2018-05-03T05:52:39.389Z,91.60
2018-05-03T05:55:06.885Z,91.60
2018-05-03T05:57:34.371Z,91.70
2018-05-03T06:00:01.876Z,91.80
2018-05-03T06:02:30.177Z,91.90
2018-05-03T06:04:57.697Z,91.80
2018-05-03T06:07:25.975Z,92.30
2018-05-03T06:09:54.318Z,92.80
2018-05-03T06:12:22.558Z,92.60
2018-05-03T06:14:50.036Z,92.60
2018-05-03T06:17:17.511Z,92.90
2018-05-03T06:19:44.987Z,93.00
2018-05-03T06:22:12.463Z,93.20
2018-05-03T06:24:40.732Z,93.30
2018-05-03T06:27:08.975Z,93.60
2018-05-03T06:29:36.723Z,93.50
2018-05-03T06:32:04.213Z,93.70
2018-05-03T06:34:31.691Z,93.70
2018-05-03T06:36:59.942Z,93.80
2018-05-03T06:39:27.727Z,93.80
2018-05-03T06:41:55.445Z,93.80
2018-05-03T06:44:22.960Z,93.90
2018-05-03T06:46:51.196Z,93.90
2018-05-03T06:49:18.674Z,93.90
2018-05-03T06:51:46.798Z,94.10
2018-05-03T06:54:16.562Z,94.20
2018-05-03T06:56:45.036Z,94.20
2018-05-03T06:59:13.679Z,94.60
2018-05-03T07:01:42.161Z,94.50
2018-05-03T07:04:10.110Z,94.50
2018-05-03T07:06:37.602Z,94.40
2018-05-03T07:09:05.092Z,94.30
2018-05-03T07:11:33.898Z,93.90
2018-05-03T07:14:01.586Z,93.90
2018-05-03T07:16:29.947Z,93.90
2018-05-03T07:18:57.415Z,93.90
2018-05-03T07:21:24.904Z,93.90
2018-05-03T07:23:53.158Z,93.70
2018-05-03T07:26:21.464Z,93.60
2018-05-03T07:28:48.933Z,93.60
2018-05-03T07:31:16.427Z,93.60
2018-05-03T07:33:43.896Z,93.40
2018-05-03T07:36:11.375Z,93.30
2018-05-03T07:38:39.617Z,93.20
2018-05-03T07:41:07.247Z,93.20
2018-05-03T07:43:34.708Z,93.10
2018-05-03T07:46:02.196Z,93.10
2018-05-03T07:48:29.721Z,93.00
2018-05-03T07:50:57.925Z,92.90
2018-05-03T07:53:25.394Z,92.90
2018-05-03T07:55:52.888Z,92.80
2018-05-03T07:58:20.401Z,92.90
2018-05-03T08:00:47.872Z,93.00
2018-05-03T08:03:15.375Z,92.80
2018-05-03T08:05:42.901Z,92.70
2018-05-03T08:08:11.135Z,92.50
2018-05-03T08:10:38.654Z,92.50
2018-05-03T08:13:06.116Z,92.30
2018-05-03T08:15:33.608Z,92.20
2018-05-03T08:18:01.089Z,92.20
2018-05-03T08:20:28.586Z,92.00
2018-05-03T08:22:56.044Z,92.10
2018-05-03T08:25:23.555Z,92.00
2018-05-03T08:27:51.064Z,91.90
2018-05-03T08:30:18.562Z,91.80
2018-05-03T08:32:46.071Z,91.80
2018-05-03T08:35:13.599Z,91.80
2018-05-03T08:37:41.062Z,91.90
2018-05-03T08:40:09.322Z,91.80
2018-05-03T08:42:36.799Z,91.50
2018-05-03T08:45:05.060Z,91.60
2018-05-03T08:47:32.528Z,91.30
2018-05-03T08:50:00.792Z,91.00
2018-05-03T08:52:28.254Z,91.00
2018-05-03T08:54:55.710Z,90.80
2018-05-03T08:57:24.053Z,89.40
2018-05-03T08:59:51.532Z,89.30
2018-05-03T09:02:19.045Z,89.50
2018-05-03T09:04:46.501Z,89.80
2018-05-03T09:07:13.993Z,89.50
2018-05-03T09:09:41.458Z,89.40
2018-05-03T09:12:08.951Z,89.50
2018-05-03T09:14:37.182Z,89.50
2018-05-03T09:17:04.680Z,89.50
2018-05-03T09:19:32.956Z,89.10
2018-05-03T09:22:01.212Z,88.70
2018-05-03T09:24:29.450Z,87.80
2018-05-03T09:26:56.965Z,88.30
2018-05-03T09:29:25.232Z,88.30
2018-05-03T09:31:53.503Z,87.80
2018-05-03T09:34:20.980Z,87.70
2018-05-03T09:36:49.254Z,87.80
2018-05-03T09:39:17.553Z,87.00
2018-05-03T09:41:45.032Z,86.90
2018-05-03T09:44:12.527Z,86.60
2018-05-03T09:46:39.996Z,86.50
2018-05-03T09:49:08.289Z,85.40
2018-05-03T09:51:35.760Z,85.40
2018-05-03T09:54:03.260Z,84.70
2018-05-03T09:56:30.840Z,84.40
2018-05-03T09:58:59.090Z,84.20
2018-05-03T10:01:26.567Z,84.10
2018-05-03T10:03:54.043Z,83.70
2018-05-03T10:06:22.309Z,82.10
2018-05-03T10:08:50.579Z,81.90
2018-05-03T10:11:18.052Z,81.80
2018-05-03T10:13:46.317Z,81.00
2018-05-03T10:16:14.548Z,81.10
2018-05-03T10:18:42.038Z,81.00
2018-05-03T10:21:09.527Z,81.00
2018-05-03T10:23:37.062Z,81.50
2018-05-03T10:26:05.300Z,80.60
2018-05-03T10:28:32.776Z,80.30
2018-05-03T10:31:00.247Z,79.10
2018-05-03T10:33:27.853Z,79.50
2018-05-03T10:35:55.404Z,77.50
2018-05-03T10:38:23.623Z,77.40
2018-05-03T10:40:51.129Z,77.30
2018-05-03T10:43:18.613Z,76.80
2018-05-03T10:45:46.097Z,76.50
2018-05-03T10:48:13.551Z,76.50
2018-05-03T10:50:41.035Z,76.50
2018-05-03T10:53:09.303Z,76.50
2018-05-03T10:55:36.794Z,76.50
2018-05-03T10:58:04.253Z,76.10
2018-05-03T11:00:31.738Z,76.30
2018-05-03T11:02:59.200Z,76.60
2018-05-03T11:05:26.775Z,76.20
2018-05-03T11:10:25.536Z,76.70
2018-05-03T11:12:53.004Z,76.70
2018-05-03T11:15:20.476Z,76.70
2018-05-03T11:17:47.943Z,76.50
2018-05-03T11:20:15.404Z,76.50
2018-05-03T11:22:42.883Z,74.70
2018-05-03T11:25:10.340Z,74.70
2018-05-03T11:27:38.610Z,75.70
2018-05-03T11:30:06.087Z,75.40
2018-05-03T11:32:34.369Z,76.60
2018-05-03T11:35:02.612Z,76.60
2018-05-03T11:37:30.136Z,76.50
2018-05-03T11:39:57.595Z,76.90
2018-05-03T11:42:25.087Z,76.80
2018-05-03T11:44:52.592Z,76.50
2018-05-03T11:47:20.097Z,76.50
2018-05-03T11:49:47.569Z,76.50
2018-05-03T11:52:15.046Z,75.30
2018-05-03T11:54:42.528Z,75.30
2018-05-03T11:57:10.033Z,75.00
2018-05-03T11:59:37.516Z,75.00
2018-05-03T12:02:05.787Z,75.50
2018-05-03T12:04:34.040Z,75.30
2018-05-03T12:07:01.500Z,75.20
2018-05-03T12:09:29.020Z,74.80
2018-05-03T12:11:56.478Z,74.60
2018-05-03T12:14:23.948Z,74.60
2018-05-03T12:16:51.414Z,73.30
2018-05-03T12:19:18.897Z,73.00
2018-05-03T12:21:46.377Z,73.30
2018-05-03T12:24:13.868Z,72.40
2018-05-03T12:26:41.359Z,71.50
2018-05-03T12:29:09.599Z,71.30
2018-05-03T12:31:37.059Z,71.30
2018-05-03T12:34:04.558Z,70.90
2018-05-03T12:36:32.024Z,70.90
2018-05-03T12:39:00.294Z,70.50
2018-05-03T12:41:28.527Z,71.00
2018-05-03T12:43:55.999Z,70.50
2018-05-03T12:46:23.523Z,71.00
2018-05-03T12:48:51.015Z,70.00
2018-05-03T12:51:18.477Z,69.90
2018-05-03T12:53:46.054Z,70.80
2018-05-03T12:56:14.307Z,71.20
2018-05-03T12:58:41.771Z,70.40
2018-05-03T13:01:09.253Z,69.90
2018-05-03T13:03:37.492Z,69.60
2018-05-03T13:06:04.970Z,69.40
2018-05-03T13:08:32.458Z,69.10
2018-05-03T13:10:59.953Z,69.20
2018-05-03T13:13:28.122Z,67.60
2018-05-03T13:15:55.614Z,67.90
2018-05-03T13:18:23.085Z,66.80
2018-05-03T13:20:51.345Z,68.40
2018-05-03T13:23:18.837Z,67.60
2018-05-03T13:25:46.321Z,67.30
2018-05-03T13:28:13.868Z,67.20
2018-05-03T13:30:41.355Z,68.00
2018-05-03T13:33:08.897Z,67.70
2018-05-03T13:35:36.356Z,66.40
2018-05-03T13:38:03.832Z,65.20
2018-05-03T13:40:31.314Z,63.50
2018-05-03T13:42:58.800Z,62.90
2018-05-03T13:48:00.937Z,62.40
2018-05-03T13:50:28.403Z,62.10
2018-05-03T13:52:55.890Z,62.40
2018-05-03T13:55:24.132Z,61.50
2018-05-03T13:57:51.616Z,61.40
2018-05-03T14:00:19.844Z,57.40
2018-05-03T14:02:47.335Z,57.40
2018-05-03T14:05:14.795Z,57.90
2018-05-03T14:07:43.060Z,56.30
2018-05-03T14:10:10.530Z,55.60
2018-05-03T14:12:38.022Z,54.30
2018-05-03T14:15:05.555Z,54.70
2018-05-03T14:17:33.804Z,56.70
2018-05-03T14:20:01.280Z,56.60
2018-05-03T14:22:29.541Z,57.70
2018-05-03T14:24:57.001Z,57.00
2018-05-03T14:27:24.475Z,56.60
2018-05-03T14:29:52.717Z,55.00
2018-05-03T14:32:20.190Z,54.90
2018-05-03T14:34:47.654Z,55.90
2018-05-03T14:37:15.123Z,56.60
2018-05-03T14:39:43.625Z,56.40
2018-05-03T14:42:11.116Z,56.40
2018-05-03T14:44:38.584Z,57.60
2018-05-03T14:47:06.066Z,58.10
2018-05-03T14:49:33.544Z,55.60
2018-05-03T14:52:01.772Z,52.60
2018-05-03T14:54:29.270Z,52.40
2018-05-03T14:56:57.502Z,50.90
2018-05-03T14:59:24.986Z,50.80
2018-05-03T15:01:52.449Z,49.20
2018-05-03T15:04:20.715Z,50.90
2018-05-03T15:06:48.187Z,50.80
2018-05-03T15:09:16.432Z,53.30
2018-05-03T15:11:43.894Z,53.20
2018-05-03T15:14:11.389Z,53.20
2018-05-03T15:16:38.926Z,54.10
2018-05-03T15:19:06.387Z,54.40
2018-05-03T15:21:33.843Z,53.50
2018-05-03T15:24:01.330Z,53.50
2018-05-03T15:26:28.854Z,55.40
2018-05-03T15:28:57.151Z,59.40
2018-05-03T15:31:25.401Z,61.10
2018-05-03T15:33:53.718Z,59.90
2018-05-03T15:36:21.937Z,60.20
2018-05-03T15:38:49.401Z,60.10
2018-05-03T15:41:16.880Z,62.90
2018-05-03T15:43:45.112Z,65.60
2018-05-03T15:46:12.605Z,64.90
2018-05-03T15:48:40.842Z,65.30
2018-05-03T15:51:08.348Z,65.20
2018-05-03T15:53:36.592Z,65.40
2018-05-03T15:56:04.084Z,65.10
2018-05-03T15:58:32.323Z,65.60
2018-05-03T16:00:59.815Z,65.60
2018-05-03T16:03:28.083Z,61.60
2018-05-03T16:05:56.324Z,60.90
2018-05-03T16:08:23.793Z,60.20
2018-05-03T16:10:51.287Z,59.80
2018-05-03T16:13:19.532Z,61.60
2018-05-03T16:15:47.122Z,61.60
2018-05-03T16:18:15.363Z,63.50
2018-05-03T16:20:42.981Z,63.40
2018-05-03T16:23:10.435Z,62.80
2018-05-03T16:25:37.927Z,63.40
2018-05-03T16:28:05.388Z,65.30
2018-05-03T16:30:32.875Z,66.80
2018-05-03T16:33:00.343Z,67.60
2018-05-03T16:35:28.572Z,68.40
2018-05-03T16:37:56.051Z,68.30
2018-05-03T16:40:25.023Z,69.10
2018-05-03T16:42:52.546Z,69.10
2018-05-03T16:45:20.018Z,69.50
2018-05-03T16:47:47.512Z,70.00
2018-05-03T16:50:14.987Z,70.40
2018-05-03T16:52:43.256Z,71.20
2018-05-03T16:55:10.768Z,71.10
2018-05-03T16:57:38.274Z,71.30
2018-05-03T17:00:05.756Z,71.50
2018-05-03T17:02:33.282Z,71.40
2018-05-03T17:05:00.745Z,71.90
2018-05-03T17:07:28.275Z,71.80
2018-05-03T17:09:55.744Z,72.00
2018-05-03T17:12:23.364Z,72.30
2018-05-03T17:14:50.877Z,72.30
2018-05-03T17:17:18.383Z,72.40
2018-05-03T17:19:45.853Z,72.40
2018-05-03T17:22:13.385Z,72.40
2018-05-03T17:24:40.859Z,72.70
2018-05-03T17:27:08.354Z,72.60
2018-05-03T17:29:35.847Z,73.20
2018-05-03T17:32:04.077Z,74.00
2018-05-03T17:34:31.575Z,74.00
2018-05-03T17:36:59.813Z,74.30
2018-05-03T17:39:27.295Z,74.30
2018-05-03T17:41:54.767Z,74.50
2018-05-03T17:44:23.120Z,75.30
2018-05-03T17:46:51.286Z,75.70
2018-05-03T17:49:18.796Z,75.60
2018-05-03T17:51:46.273Z,75.70
2018-05-03T17:54:13.786Z,75.90
2018-05-03T17:56:41.297Z,76.10
2018-05-03T17:59:08.907Z,76.30
2018-05-03T18:01:37.517Z,76.60
2018-05-03T18:04:05.016Z,76.50
2018-05-03T18:09:16.525Z,77.10
2018-05-03T18:11:43.986Z,77.30
2018-05-03T18:14:11.464Z,77.50
2018-05-03T18:16:38.939Z,77.80
2018-05-03T18:19:07.209Z,79.10
2018-05-03T18:21:34.673Z,78.30
2018-05-03T18:24:02.912Z,78.70
2018-05-03T18:26:30.511Z,78.70
2018-05-03T18:28:57.978Z,78.80
2018-05-03T18:31:26.243Z,79.30
2018-05-03T18:33:54.478Z,79.40
2018-05-03T18:36:22.060Z,79.30
2018-05-03T18:38:49.525Z,79.60
2018-05-03T18:41:17.016Z,79.80
2018-05-03T18:43:44.508Z,80.30
2018-05-03T18:46:11.979Z,80.20
2018-05-03T18:48:39.447Z,80.50
2018-05-03T18:51:06.953Z,80.80
2018-05-03T18:53:34.419Z,81.00
2018-05-03T18:56:01.946Z,81.50
2018-05-03T18:58:30.195Z,81.20
2018-05-03T19:00:59.263Z,81.20
2018-05-03T19:03:27.488Z,80.60
2018-05-03T19:05:55.748Z,80.20
2018-05-03T19:08:24.009Z,80.00
2018-05-03T19:10:51.522Z,80.10
2018-05-03T19:13:19.014Z,80.20
2018-05-03T19:15:46.488Z,80.40
2018-05-03T19:18:14.766Z,80.00
2018-05-03T19:20:42.270Z,80.20
2018-05-03T19:23:09.765Z,80.10
2018-05-03T19:25:37.228Z,79.90
2018-05-03T19:28:05.000Z,80.20
2018-05-03T19:30:32.800Z,79.40
2018-05-03T19:33:01.341Z,79.10
2018-05-03T19:35:28.912Z,79.10
2018-05-03T19:37:56.417Z,79.20
2018-05-03T19:40:23.896Z,78.70
2018-05-03T19:42:51.385Z,78.90
2018-05-03T19:45:19.619Z,78.90
2018-05-03T19:47:47.117Z,79.00
2018-05-03T19:50:14.577Z,78.40
2018-05-03T19:52:43.589Z,77.70
2018-05-03T19:55:11.814Z,78.00
2018-05-03T19:57:39.313Z,77.80
2018-05-03T20:00:07.545Z,77.90
2018-05-03T20:02:35.036Z,77.90
2018-05-03T20:05:02.509Z,78.80
2018-05-03T20:07:30.734Z,79.60
2018-05-03T20:09:58.244Z,79.50
2018-05-03T20:12:26.472Z,80.40
2018-05-03T20:14:53.953Z,80.40
2018-05-03T20:17:22.176Z,80.50
2018-05-03T20:19:49.677Z,80.60
2018-05-03T20:22:19.632Z,81.10
2018-05-03T20:24:47.950Z,81.30
2018-05-03T20:27:15.515Z,81.30
2018-05-03T20:29:43.176Z,81.40
2018-05-03T20:32:10.752Z,82.50
2018-05-03T20:34:39.001Z,80.50
2018-05-03T20:37:06.920Z,80.40
2018-05-03T20:39:35.458Z,79.30
2018-05-03T20:42:03.276Z,79.20
2018-05-03T20:44:31.729Z,79.30
2018-05-03T20:46:59.213Z,79.30
2018-05-03T20:49:28.096Z,78.80
2018-05-03T20:51:56.942Z,79.00
2018-05-03T20:54:24.453Z,79.00
2018-05-03T20:56:52.892Z,78.10
2018-05-03T20:59:20.385Z,78.10
2018-05-03T21:01:48.659Z,77.80
2018-05-03T21:04:16.906Z,77.90
2018-05-03T21:06:45.904Z,77.80
2018-05-03T21:09:14.126Z,77.50
2018-05-03T21:11:41.623Z,77.50
2018-05-03T21:14:09.082Z,77.80
2018-05-03T21:16:36.597Z,77.80
2018-05-03T21:19:04.159Z,78.60
2018-05-03T21:21:31.647Z,77.80
2018-05-03T21:23:59.119Z,77.90
2018-05-03T21:26:26.699Z,77.80
2018-05-03T21:28:54.136Z,77.60
2018-05-03T21:31:23.132Z,77.60
2018-05-03T21:33:50.632Z,77.60
2018-05-03T21:36:18.102Z,77.80
2018-05-03T21:38:45.602Z,77.70
2018-05-03T21:41:13.182Z,77.80
2018-05-03T21:43:41.445Z,77.70
2018-05-03T21:46:10.433Z,77.70
2018-05-03T21:48:37.963Z,77.60
2018-05-03T21:51:05.454Z,77.70
2018-05-03T21:53:33.698Z,77.40
2018-05-03T21:56:01.159Z,78.00
2018-05-03T21:58:28.640Z,78.00
2018-05-03T22:00:56.116Z,77.80
2018-05-03T22:03:24.639Z,77.60
2018-05-03T22:05:52.186Z,77.60
2018-05-03T22:08:19.689Z,77.60
2018-05-03T22:10:47.153Z,77.70
2018-05-03T22:13:14.773Z,77.50
2018-05-03T22:15:42.326Z,77.50
2018-05-03T22:18:09.803Z,77.50
2018-05-03T22:20:37.287Z,77.50
2018-05-03T22:23:04.744Z,77.50
2018-05-03T22:25:33.734Z,77.20
2018-05-03T22:28:01.222Z,77.10
2018-05-03T22:30:29.460Z,77.50
2018-05-03T22:32:57.037Z,77.50
2018-05-03T22:35:24.521Z,77.60
2018-05-03T22:37:51.987Z,77.60
2018-05-03T22:40:20.294Z,77.50
2018-05-03T22:42:47.853Z,77.50
2018-05-03T22:45:15.406Z,77.60
2018-05-03T22:47:42.906Z,77.60
2018-05-03T22:50:10.374Z,77.50
2018-05-03T22:52:37.860Z,78.30
2018-05-03T22:55:06.142Z,78.00
2018-05-03T22:57:34.371Z,77.90
2018-05-03T23:00:01.847Z,78.00
2018-05-03T23:02:29.431Z,78.00
2018-05-03T23:04:56.941Z,78.10
2018-05-03T23:07:24.549Z,78.10
2018-05-03T23:09:52.796Z,78.20
2018-05-03T23:12:21.781Z,78.40
2018-05-03T23:14:49.300Z,78.40
2018-05-03T23:17:16.797Z,78.40
2018-05-03T23:19:44.294Z,78.50
2018-05-03T23:22:12.531Z,78.50
2018-05-03T23:24:40.251Z,78.50
2018-05-03T23:27:07.746Z,78.50
2018-05-03T23:29:35.207Z,78.10
2018-05-03T23:32:02.713Z,78.50
2018-05-03T23:34:30.283Z,78.60
2018-05-03T23:36:57.791Z,78.70
2018-05-03T23:39:26.087Z,78.90
2018-05-03T23:41:54.341Z,79.20
2018-05-03T23:44:21.798Z,79.10
2018-05-03T23:46:50.090Z,79.30
2018-05-03T23:49:18.311Z,79.80
2018-05-03T23:51:45.890Z,79.40
2018-05-03T23:54:13.352Z,79.00
2018-05-03T23:56:40.811Z,79.00
2018-05-03T23:59:08.311Z,79.00
